createdAt,value
2023-04-09T00:00:49.577Z,56.23
2023-04-09T00:03:40.764Z,56.07
2023-04-09T00:06:15.184Z,59.17
2023-04-09T00:08:48.806Z,56.10
2023-04-09T00:11:22.422Z,57.80
2023-04-09T00:13:55.864Z,53.40
2023-04-09T00:16:29.473Z,56.93
2023-04-09T00:19:03.185Z,56.30
2023-04-09T00:21:37.603Z,56.97
2023-04-09T00:24:11.617Z,56.67
2023-04-09T00:26:45.062Z,59.93
2023-04-09T00:29:19.055Z,57.57
2023-04-09T00:31:52.465Z,59.27
2023-04-09T00:34:26.626Z,59.63
2023-04-09T00:37:00.252Z,58.60
2023-04-09T00:39:33.689Z,54.93
2023-04-09T00:42:07.422Z,62.37
2023-04-09T00:44:40.731Z,57.60
2023-04-09T00:47:14.625Z,62.10
2023-04-09T00:49:48.377Z,56.73
2023-04-09T00:52:21.603Z,56.73
2023-04-09T00:54:56.563Z,58.13
2023-04-09T00:57:30.239Z,57.40
2023-04-09T01:00:04.711Z,55.03
2023-04-09T01:02:38.687Z,58.80
2023-04-09T01:05:13.982Z,59.80
2023-04-09T01:08:03.508Z,59.77
2023-04-09T01:10:44.092Z,61.47
2023-04-09T01:13:21.314Z,59.43
2023-04-09T01:15:57.984Z,58.20
2023-04-09T01:18:37.731Z,58.73
2023-04-09T01:21:19.148Z,56.37
2023-04-09T01:24:00.548Z,55.73
2023-04-09T01:27:00.146Z,53.57
2023-04-09T01:29:52.997Z,51.20
2023-04-09T01:32:27.863Z,54.47
2023-04-09T01:35:02.835Z,52.87
2023-04-09T01:37:37.319Z,56.17
2023-04-09T01:40:12.930Z,54.17
2023-04-09T01:42:47.568Z,53.27
2023-04-09T01:45:22.355Z,58.50
2023-04-09T01:47:57.173Z,55.67
2023-04-09T01:50:31.122Z,57.67
2023-04-09T01:53:05.378Z,54.73
2023-04-09T01:55:38.704Z,56.10
2023-04-09T01:58:13.410Z,56.17
2023-04-09T02:00:49.962Z,57.47
2023-04-09T02:03:28.514Z,59.40
2023-04-09T02:06:16.056Z,52.23
2023-04-09T02:08:52.307Z,52.67
2023-04-09T02:11:28.476Z,55.70
2023-04-09T02:14:03.147Z,53.10
2023-04-09T02:16:38.036Z,54.40
2023-04-09T02:19:12.116Z,55.60
2023-04-09T02:21:45.488Z,55.10
2023-04-09T02:24:19.179Z,54.10
2023-04-09T02:26:52.744Z,50.43
2023-04-09T02:29:26.470Z,52.50
2023-04-09T02:31:59.989Z,51.80
2023-04-09T02:34:33.100Z,52.67
2023-04-09T02:37:07.732Z,53.47
2023-04-09T02:39:41.175Z,49.40
2023-04-09T02:42:14.506Z,51.07
2023-04-09T02:44:48.107Z,52.23
2023-04-09T02:47:22.135Z,51.63
2023-04-09T02:49:56.397Z,48.13
2023-04-09T02:52:29.936Z,51.33
2023-04-09T02:55:04.239Z,49.33
2023-04-09T02:57:37.947Z,48.53
2023-04-09T03:00:14.375Z,47.47
2023-04-09T03:02:48.150Z,49.83
2023-04-09T03:05:21.819Z,49.40
2023-04-09T03:07:55.825Z,49.00
2023-04-09T03:10:30.532Z,46.97
2023-04-09T03:13:03.851Z,46.63
2023-04-09T03:15:37.318Z,52.97
2023-04-09T03:18:10.887Z,48.60
2023-04-09T03:20:44.439Z,44.60
2023-04-09T03:23:18.649Z,46.07
2023-04-09T03:26:03.508Z,48.40
2023-04-09T03:28:39.984Z,49.70
2023-04-09T03:31:14.330Z,46.40
2023-04-09T03:33:49.035Z,46.10
2023-04-09T03:36:22.421Z,48.40
2023-04-09T03:39:19.171Z,47.93
2023-04-09T03:41:53.587Z,47.80
2023-04-09T03:44:27.031Z,45.90
2023-04-09T03:47:20.607Z,45.63
2023-04-09T03:49:54.856Z,46.93
2023-04-09T03:52:32.146Z,47.57
2023-04-09T03:55:13.422Z,47.87
2023-04-09T03:57:47.386Z,48.57
2023-04-09T04:00:22.995Z,46.63
2023-04-09T04:03:21.402Z,47.20
2023-04-09T04:06:13.177Z,45.80
2023-04-09T04:08:59.883Z,45.00
2023-04-09T04:11:41.351Z,46.37
2023-04-09T04:14:15.075Z,47.63
2023-04-09T04:16:49.829Z,48.37
2023-04-09T04:19:25.166Z,46.33
2023-04-09T04:21:59.239Z,50.17
2023-04-09T04:24:32.948Z,48.57
2023-04-09T04:27:08.183Z,46.73
2023-04-09T04:29:42.400Z,46.25
2023-04-09T04:32:30.259Z,49.33
2023-04-09T04:35:05.375Z,50.23
2023-04-09T04:37:40.649Z,51.20
2023-04-09T04:40:15.028Z,49.93
2023-04-09T04:42:48.730Z,53.23
2023-04-09T04:45:22.684Z,49.70
2023-04-09T04:48:04.893Z,52.70
2023-04-09T04:50:38.649Z,52.83
2023-04-09T04:53:14.904Z,53.47
2023-04-09T04:55:53.476Z,52.07
2023-04-09T04:58:30.974Z,52.40
2023-04-09T05:01:05.362Z,52.23
2023-04-09T05:03:39.600Z,55.17
2023-04-09T05:06:29.961Z,52.90
2023-04-09T05:09:03.770Z,53.20
2023-04-09T05:11:44.527Z,53.00
2023-04-09T05:14:22.606Z,56.13
2023-04-09T05:16:56.583Z,57.67
2023-04-09T05:19:33.496Z,56.57
2023-04-09T05:22:08.314Z,56.03
2023-04-09T05:24:41.750Z,57.13
2023-04-09T05:27:15.681Z,56.90
2023-04-09T05:29:49.943Z,58.07
2023-04-09T05:32:24.047Z,56.57
2023-04-09T05:34:57.547Z,58.23
2023-04-09T05:37:31.860Z,53.47
2023-04-09T05:40:05.720Z,54.57
2023-04-09T05:42:39.462Z,56.07
2023-04-09T05:45:19.531Z,54.77
2023-04-09T05:47:56.027Z,56.13
2023-04-09T05:50:29.877Z,50.53
2023-04-09T05:53:03.703Z,52.67
2023-04-09T05:55:43.598Z,51.77
2023-04-09T05:58:17.562Z,50.43
2023-04-09T06:00:51.890Z,52.33
2023-04-09T06:03:26.320Z,53.07
2023-04-09T06:06:00.401Z,49.63
2023-04-09T06:08:34.408Z,50.53
2023-04-09T06:11:12.326Z,48.60
2023-04-09T06:13:45.704Z,47.30
2023-04-09T06:16:19.231Z,46.57
2023-04-09T06:18:54.798Z,48.47
2023-04-09T06:21:28.462Z,42.87
2023-04-09T06:24:01.637Z,46.13
2023-04-09T06:26:35.190Z,41.50
2023-04-09T06:29:08.941Z,41.87
2023-04-09T06:31:42.689Z,39.87
2023-04-09T06:34:15.667Z,38.43
2023-04-09T06:36:48.921Z,42.45
2023-04-09T06:39:22.316Z,43.70
2023-04-09T06:41:55.786Z,44.20
2023-04-09T06:44:45.081Z,44.53
2023-04-09T06:47:18.685Z,43.73
2023-04-09T06:49:52.361Z,41.37
2023-04-09T06:52:25.770Z,42.00
2023-04-09T06:54:59.143Z,44.97
2023-04-09T06:57:32.810Z,41.97
2023-04-09T07:00:06.912Z,45.63
2023-04-09T07:02:40.647Z,44.03
2023-04-09T07:05:14.666Z,44.07
2023-04-09T07:07:47.956Z,42.53
2023-04-09T07:10:21.894Z,40.40
2023-04-09T07:12:55.528Z,37.97
2023-04-09T07:15:29.572Z,37.17
2023-04-09T07:18:03.050Z,39.20
2023-04-09T07:20:36.281Z,36.53
2023-04-09T07:23:09.685Z,38.47
2023-04-09T07:25:43.920Z,37.10
2023-04-09T07:28:17.368Z,40.37
2023-04-09T07:30:51.096Z,35.80
2023-04-09T07:33:25.723Z,37.63
2023-04-09T07:35:59.540Z,35.93
2023-04-09T07:38:33.532Z,36.70
2023-04-09T07:41:07.037Z,32.97
2023-04-09T07:43:40.399Z,35.20
2023-04-09T07:46:19.877Z,35.33
2023-04-09T07:48:53.460Z,40.40
2023-04-09T07:51:28.242Z,38.40
2023-04-09T07:54:01.332Z,36.63
2023-04-09T07:56:34.879Z,36.83
2023-04-09T07:59:08.275Z,34.73
2023-04-09T08:01:42.155Z,32.87
2023-04-09T08:04:16.012Z,35.97
2023-04-09T08:06:50.900Z,35.27
2023-04-09T08:09:25.129Z,34.43
2023-04-09T08:11:58.941Z,33.57
2023-04-09T08:14:32.595Z,32.80
2023-04-09T08:17:06.001Z,34.83
2023-04-09T08:19:41.789Z,32.30
2023-04-09T08:22:15.806Z,25.03
2023-04-09T08:24:54.576Z,29.20
2023-04-09T08:27:28.121Z,26.37
2023-04-09T08:30:02.755Z,27.00
2023-04-09T08:32:36.595Z,24.60
2023-04-09T08:35:11.854Z,25.70
2023-04-09T08:37:45.460Z,25.20
2023-04-09T08:40:19.593Z,24.63
2023-04-09T08:42:58.448Z,26.53
2023-04-09T08:45:31.954Z,25.17
2023-04-09T08:48:07.063Z,26.20
2023-04-09T08:50:40.436Z,24.30
2023-04-09T08:53:15.173Z,24.03
2023-04-09T08:55:50.161Z,23.57
2023-04-09T08:58:23.696Z,29.43
2023-04-09T09:00:57.410Z,26.30
2023-04-09T09:03:30.917Z,25.10
2023-04-09T09:06:04.389Z,25.07
2023-04-09T09:08:37.659Z,23.50
2023-04-09T09:11:11.385Z,22.33
2023-04-09T09:13:44.780Z,20.60
2023-04-09T09:16:18.700Z,23.20
2023-04-09T09:18:53.384Z,21.50
2023-04-09T09:21:29.510Z,23.40
2023-04-09T09:24:02.864Z,23.00
2023-04-09T09:26:42.239Z,22.47
2023-04-09T09:29:15.797Z,23.43
2023-04-09T09:31:53.277Z,23.27
2023-04-09T09:34:27.784Z,22.70
2023-04-09T09:37:00.860Z,22.77
2023-04-09T09:39:46.237Z,22.90
2023-04-09T09:42:19.836Z,21.60
2023-04-09T09:44:54.805Z,20.83
2023-04-09T09:47:31.530Z,20.13
2023-04-09T09:50:05.077Z,21.00
2023-04-09T09:52:40.092Z,20.37
2023-04-09T09:55:17.461Z,19.70
2023-04-09T09:57:53.358Z,19.70
2023-04-09T10:00:27.878Z,17.03
2023-04-09T10:03:07.495Z,19.07
2023-04-09T10:05:42.146Z,19.23
2023-04-09T10:08:16.495Z,19.07
2023-04-09T10:10:50.763Z,16.10
2023-04-09T10:13:32.672Z,18.70
2023-04-09T10:16:07.625Z,18.93
2023-04-09T10:18:42.936Z,21.30
2023-04-09T10:21:27.183Z,18.07
2023-04-09T10:24:05.769Z,18.60
2023-04-09T10:26:41.803Z,19.17
2023-04-09T10:29:16.885Z,17.00
2023-04-09T10:31:53.122Z,16.50
2023-04-09T10:34:29.605Z,18.07
2023-04-09T10:37:02.910Z,17.30
2023-04-09T10:39:40.564Z,17.63
2023-04-09T10:42:19.763Z,18.27
2023-04-09T10:45:09.224Z,17.30
2023-04-09T10:47:44.108Z,18.37
2023-04-09T10:50:26.791Z,16.13
2023-04-09T10:53:02.216Z,19.73
2023-04-09T10:55:38.465Z,16.80
2023-04-09T10:58:13.951Z,22.13
2023-04-09T11:00:49.205Z,15.97
2023-04-09T11:03:30.812Z,27.97
2023-04-09T11:06:09.550Z,18.83
2023-04-09T11:08:46.399Z,17.20
2023-04-09T11:11:19.722Z,16.10
2023-04-09T11:13:53.111Z,19.23
2023-04-09T11:16:29.258Z,18.43
2023-04-09T11:19:03.211Z,15.63
2023-04-09T11:21:36.608Z,18.30
2023-04-09T11:24:10.923Z,17.33
2023-04-09T11:26:44.438Z,14.87
2023-04-09T11:29:18.303Z,17.23
2023-04-09T11:31:51.727Z,16.47
2023-04-09T11:34:28.683Z,19.83
2023-04-09T11:37:07.600Z,19.03
2023-04-09T11:39:42.658Z,20.00
2023-04-09T11:42:19.102Z,19.13
2023-04-09T11:44:52.336Z,13.40
2023-04-09T11:47:27.569Z,13.43
2023-04-09T11:50:02.071Z,13.33
2023-04-09T11:52:36.232Z,12.67
2023-04-09T11:55:11.175Z,22.77
2023-04-09T11:57:47.047Z,20.37
2023-04-09T12:00:21.363Z,13.03
2023-04-09T12:03:00.930Z,15.60
2023-04-09T12:05:36.366Z,16.63
2023-04-09T12:08:11.638Z,13.27
2023-04-09T12:10:45.743Z,11.93
2023-04-09T12:13:19.298Z,15.53
2023-04-09T12:15:53.969Z,15.20
2023-04-09T12:18:28.412Z,13.60
2023-04-09T12:21:02.983Z,13.10
2023-04-09T12:23:36.779Z,15.07
2023-04-09T12:26:10.159Z,13.33
2023-04-09T12:28:43.425Z,13.07
2023-04-09T12:31:16.661Z,13.00
2023-04-09T12:33:50.134Z,17.77
2023-04-09T12:36:24.075Z,14.60
2023-04-09T12:38:57.426Z,14.30
2023-04-09T12:41:31.627Z,16.30
2023-04-09T12:44:07.486Z,17.40
2023-04-09T12:46:40.859Z,12.83
2023-04-09T12:49:14.856Z,16.30
2023-04-09T12:51:48.053Z,15.87
2023-04-09T12:54:21.810Z,14.93
2023-04-09T12:56:55.276Z,15.97
2023-04-09T12:59:29.072Z,15.57
2023-04-09T13:02:02.693Z,16.00
2023-04-09T13:04:36.496Z,14.93
2023-04-09T13:07:09.760Z,13.47
2023-04-09T13:09:43.409Z,16.10
2023-04-09T13:12:17.096Z,14.90
2023-04-09T13:14:51.252Z,15.17
2023-04-09T13:17:24.675Z,15.83
2023-04-09T13:19:58.215Z,15.60
2023-04-09T13:22:31.640Z,15.97
2023-04-09T13:25:06.029Z,15.13
2023-04-09T13:27:39.210Z,14.30
2023-04-09T13:30:14.221Z,16.93
2023-04-09T13:32:48.079Z,15.43
2023-04-09T13:35:22.477Z,16.10
2023-04-09T13:37:55.995Z,16.17
2023-04-09T13:40:29.262Z,14.83
2023-04-09T13:43:02.867Z,17.33
2023-04-09T13:45:36.609Z,15.57
2023-04-09T13:48:12.279Z,15.07
2023-04-09T13:50:47.620Z,17.57
2023-04-09T13:53:24.004Z,83.73
2023-04-09T13:55:57.408Z,199.40
2023-04-09T13:58:30.659Z,126.73
2023-04-09T14:01:04.731Z,166.07
2023-04-09T14:03:42.166Z,325.63
2023-04-09T14:06:15.700Z,1434.10
2023-04-09T14:08:48.890Z,366.47
2023-04-09T14:11:22.286Z,196.63
2023-04-09T14:13:56.137Z,360.30
2023-04-09T14:16:30.750Z,183.43
2023-04-09T14:19:04.336Z,598.47
2023-04-09T14:21:37.914Z,163.30
2023-04-09T14:24:11.158Z,157.27
2023-04-09T14:26:44.702Z,810.00
2023-04-09T14:29:18.669Z,1999.90
2023-04-09T14:31:53.522Z,1999.90
2023-04-09T14:34:28.140Z,1999.90
2023-04-09T14:37:01.428Z,1420.90
2023-04-09T14:39:34.823Z,1057.37
2023-04-09T14:42:08.352Z,1554.20
2023-04-09T14:44:42.666Z,1384.37
2023-04-09T14:47:16.245Z,898.57
2023-04-09T14:49:49.613Z,733.03
2023-04-09T14:52:23.590Z,1961.37
2023-04-09T14:54:56.825Z,1658.23
2023-04-09T14:57:30.162Z,1108.07
2023-04-09T15:00:04.298Z,1252.30
2023-04-09T15:02:38.859Z,926.43
2023-04-09T15:05:14.769Z,627.70
2023-04-09T15:07:48.040Z,349.03
2023-04-09T15:10:23.337Z,130.20
2023-04-09T15:12:57.080Z,52.13
2023-04-09T15:15:31.589Z,120.80
2023-04-09T15:18:06.454Z,85.97
2023-04-09T15:20:43.642Z,40.70
2023-04-09T15:23:17.494Z,26.73
2023-04-09T15:25:52.125Z,27.67
2023-04-09T15:28:25.645Z,35.17
2023-04-09T15:30:59.579Z,27.50
2023-04-09T15:33:33.862Z,18.97
2023-04-09T15:36:08.778Z,28.77
2023-04-09T15:38:42.414Z,19.17
2023-04-09T15:41:17.218Z,20.93
2023-04-09T15:43:51.958Z,20.43
2023-04-09T15:46:26.371Z,15.97
2023-04-09T15:49:00.023Z,16.77
2023-04-09T15:51:33.414Z,17.37
2023-04-09T15:54:07.448Z,19.40
2023-04-09T15:56:41.288Z,16.47
2023-04-09T15:59:16.522Z,19.00
2023-04-09T16:01:50.000Z,16.20
2023-04-09T16:04:24.484Z,26.07
2023-04-09T16:06:57.858Z,18.77
2023-04-09T16:09:31.239Z,16.03
2023-04-09T16:12:04.837Z,14.23
2023-04-09T16:14:39.455Z,15.77
2023-04-09T16:17:12.684Z,14.57
2023-04-09T16:19:46.246Z,17.00
2023-04-09T16:22:19.401Z,17.57
2023-04-09T16:24:53.104Z,16.00
2023-04-09T16:27:26.946Z,19.10
2023-04-09T16:30:01.320Z,19.47
2023-04-09T16:32:34.878Z,16.87
2023-04-09T16:35:09.890Z,18.87
2023-04-09T16:37:43.695Z,17.47
2023-04-09T16:40:20.783Z,20.17
2023-04-09T16:42:55.101Z,19.87
2023-04-09T16:45:29.016Z,21.53
2023-04-09T16:48:02.503Z,25.43
2023-04-09T16:50:36.562Z,23.50
2023-04-09T16:53:10.280Z,28.23
2023-04-09T16:55:45.058Z,28.67
2023-04-09T16:58:18.630Z,27.23
2023-04-09T17:00:52.362Z,22.87
2023-04-09T17:03:26.437Z,26.03
2023-04-09T17:06:00.258Z,25.70
2023-04-09T17:08:33.546Z,22.43
2023-04-09T17:11:07.451Z,21.43
2023-04-09T17:13:40.844Z,19.80
2023-04-09T17:16:15.658Z,18.57
2023-04-09T17:18:49.069Z,20.67
2023-04-09T17:21:22.275Z,18.60
2023-04-09T17:23:56.267Z,17.83
2023-04-09T17:26:30.075Z,19.37
2023-04-09T17:29:03.201Z,17.87
2023-04-09T17:31:36.683Z,18.70
2023-04-09T17:34:11.133Z,18.50
2023-04-09T17:36:47.127Z,17.07
2023-04-09T17:39:20.554Z,18.03
2023-04-09T17:41:58.822Z,18.47
2023-04-09T17:44:35.348Z,18.63
2023-04-09T17:47:09.111Z,17.07
2023-04-09T17:49:42.921Z,18.13
2023-04-09T17:52:16.490Z,18.13
2023-04-09T17:54:50.935Z,20.40
2023-04-09T17:57:24.745Z,27.77
2023-04-09T17:59:58.552Z,34.07
2023-04-09T18:02:32.676Z,47.43
2023-04-09T18:05:07.711Z,44.77
2023-04-09T18:07:41.392Z,41.47
2023-04-09T18:10:15.686Z,38.83
2023-04-09T18:12:49.405Z,44.80
2023-04-09T18:15:25.065Z,34.57
2023-04-09T18:17:58.557Z,35.03
2023-04-09T18:20:33.865Z,29.00
2023-04-09T18:23:07.503Z,31.13
2023-04-09T18:25:40.731Z,28.83
2023-04-09T18:28:14.284Z,30.53
2023-04-09T18:30:47.755Z,29.90
2023-04-09T18:33:21.451Z,32.77
2023-04-09T18:35:55.149Z,30.47
2023-04-09T18:38:30.180Z,29.53
2023-04-09T18:41:04.990Z,28.50
2023-04-09T18:43:41.138Z,31.23
2023-04-09T18:46:14.734Z,32.10
2023-04-09T18:48:48.537Z,34.60
2023-04-09T18:51:22.208Z,30.83
2023-04-09T18:53:56.102Z,31.47
2023-04-09T18:56:30.533Z,33.13
2023-04-09T18:59:03.858Z,32.67
2023-04-09T19:01:37.915Z,29.67
2023-04-09T19:04:11.302Z,33.40
2023-04-09T19:06:46.329Z,33.40
2023-04-09T19:09:20.479Z,37.87
2023-04-09T19:11:54.344Z,40.20
2023-04-09T19:14:27.888Z,34.20
2023-04-09T19:17:02.718Z,34.77
2023-04-09T19:19:36.315Z,39.67
2023-04-09T19:22:09.916Z,40.93
2023-04-09T19:24:44.607Z,39.00
2023-04-09T19:27:19.160Z,35.70
2023-04-09T19:29:53.376Z,37.30
2023-04-09T19:32:26.904Z,38.33
2023-04-09T19:35:00.255Z,39.80
2023-04-09T19:37:33.291Z,44.77
2023-04-09T19:40:08.546Z,40.87
2023-04-09T19:42:42.198Z,34.37
2023-04-09T19:45:16.015Z,30.50
2023-04-09T19:47:49.629Z,30.50
2023-04-09T19:50:22.798Z,29.20
2023-04-09T19:52:58.961Z,32.27
2023-04-09T19:55:32.583Z,29.37
2023-04-09T19:58:06.945Z,68.57
2023-04-09T20:00:40.223Z,83.90
2023-04-09T20:03:13.883Z,70.77
2023-04-09T20:05:49.305Z,74.30
2023-04-09T20:08:22.751Z,71.37
2023-04-09T20:10:56.156Z,59.00
2023-04-09T20:13:29.682Z,55.30
2023-04-09T20:16:03.090Z,57.93
2023-04-09T20:18:36.879Z,67.37
2023-04-09T20:21:14.565Z,65.20
2023-04-09T20:23:47.968Z,61.00
2023-04-09T20:26:21.377Z,46.23
2023-04-09T20:28:55.160Z,38.50
2023-04-09T20:31:29.230Z,37.23
2023-04-09T20:34:03.094Z,36.03
2023-04-09T20:36:37.835Z,30.80
2023-04-09T20:39:11.404Z,31.57
2023-04-09T20:41:45.029Z,31.47
2023-04-09T20:44:18.476Z,30.17
2023-04-09T20:46:52.655Z,29.03
2023-04-09T20:49:26.034Z,27.50
2023-04-09T20:51:59.612Z,28.80
2023-04-09T20:54:33.228Z,26.97
2023-04-09T20:57:07.024Z,26.57
2023-04-09T20:59:40.934Z,28.07
2023-04-09T21:02:15.769Z,25.37
2023-04-09T21:04:49.451Z,27.53
2023-04-09T21:07:23.048Z,27.47
2023-04-09T21:09:56.648Z,27.97
2023-04-09T21:12:30.212Z,27.47
2023-04-09T21:15:03.309Z,25.27
2023-04-09T21:17:37.085Z,26.53
2023-04-09T21:20:13.185Z,26.40
2023-04-09T21:22:46.073Z,27.50
2023-04-09T21:25:19.686Z,27.90
2023-04-09T21:27:53.147Z,27.10
2023-04-09T21:30:26.681Z,26.53
2023-04-09T21:33:01.500Z,28.43
2023-04-09T21:35:36.080Z,30.10
2023-04-09T21:38:09.379Z,25.33
2023-04-09T21:40:42.516Z,29.00
2023-04-09T21:43:17.144Z,28.27
2023-04-09T21:45:51.211Z,31.00
2023-04-09T21:48:24.814Z,30.90
2023-04-09T21:50:58.498Z,26.63
2023-04-09T21:53:33.667Z,30.90
2023-04-09T21:56:07.692Z,26.37
2023-04-09T21:58:41.407Z,30.53
2023-04-09T22:01:26.291Z,28.43
2023-04-09T22:04:03.761Z,28.07
2023-04-09T22:06:37.279Z,28.83
2023-04-09T22:09:10.589Z,28.20
2023-04-09T22:11:44.140Z,30.15
2023-04-09T22:14:18.150Z,28.80
2023-04-09T22:16:51.349Z,27.57
2023-04-09T22:19:24.760Z,26.70
2023-04-09T22:21:58.799Z,29.30
2023-04-09T22:24:32.346Z,28.55
2023-04-09T22:27:06.067Z,25.23
2023-04-09T22:29:39.546Z,27.33
2023-04-09T22:32:13.747Z,31.87
2023-04-09T22:34:47.064Z,26.20
2023-04-09T22:37:20.184Z,29.67
2023-04-09T22:39:53.732Z,30.40
2023-04-09T22:42:27.554Z,27.83
2023-04-09T22:45:01.339Z,28.27
2023-04-09T22:47:35.976Z,29.07
2023-04-09T22:50:13.627Z,30.10
2023-04-09T22:52:46.863Z,27.53
2023-04-09T22:55:21.863Z,28.43
2023-04-09T22:57:55.160Z,28.40
2023-04-09T23:00:29.296Z,32.07
2023-04-09T23:03:03.721Z,30.33
2023-04-09T23:05:37.721Z,30.20
2023-04-09T23:08:11.702Z,30.23
2023-04-09T23:10:45.113Z,29.97
2023-04-09T23:13:18.511Z,31.60
2023-04-09T23:15:52.136Z,31.93
2023-04-09T23:18:26.327Z,30.70
2023-04-09T23:20:59.713Z,27.47
2023-04-09T23:23:33.519Z,30.57
2023-04-09T23:26:08.555Z,30.37
2023-04-09T23:28:41.795Z,30.03
2023-04-09T23:31:15.171Z,29.70
2023-04-09T23:33:49.221Z,29.60
2023-04-09T23:36:24.325Z,33.60
2023-04-09T23:38:57.620Z,31.33
2023-04-09T23:41:31.380Z,28.97
2023-04-09T23:44:04.773Z,31.17
2023-04-09T23:46:38.464Z,32.67
2023-04-09T23:49:12.788Z,32.60
2023-04-09T23:51:46.595Z,33.33
2023-04-09T23:54:20.265Z,35.60
2023-04-09T23:56:53.584Z,35.00
2023-04-09T23:59:27.858Z,32.47
